| time (UTC) | temp F | wind direction | speed knots | gust knots | rain 1hr in | rain 24hr in | rain mn in | humidity % | barometer mb |
| 20260831054721 | 69 | 281 | 2.6 | 4.3 | 0.00 | 0.00 | 0.00 | 69 | 1030.2 |
| 20260831053720 | 68 | 199 | 0.9 | 2.6 | 0.00 | 0.00 | 0.00 | 68 | 1029.9 |
| 20260831052719 | 68 | 255 | 0.9 | 2.6 | 0.00 | 0.00 | 0.00 | 66 | 1029.9 |
| 20260831051738 | 69 | 263 | 1.7 | 2.6 | 0.00 | 0.00 | 0.00 | 65 | 1030.1 |
| 20260831050716 | 68 | 274 | 1.7 | 3.5 | 0.00 | 0.00 | 0.00 | 66 | 1030.0 |
| 20260831045745 | 69 | 254 | 1.7 | 2.6 | 0.00 | 0.00 | 0.00 | 65 | 1030.0 |
| 20260831044744 | 68 | 264 | 1.7 | 3.5 | 0.00 | 0.00 | 0.00 | 64 | 1030.0 |
| 20260831043742 | 69 | 252 | 1.7 | 3.5 | 0.00 | 0.00 | 0.00 | 65 | 1030.0 |
| 20260831042741 | 68 | 193 | 0.9 | 1.7 | 0.00 | 0.00 | 0.00 | 68 | 1030.3 |
| 20260831041740 | 69 | 248 | 1.7 | 3.5 | 0.00 | 0.00 | 0.00 | 66 | 1030.2 |
| 20260831040759 | 69 | 153 | 1.7 | 3.5 | 0.00 | 0.00 | 0.00 | 67 | 1030.3 |
| 20260831035737 | 70 | 211 | 2.6 | 3.5 | 0.00 | 0.00 | 0.00 | 65 | 1030.4 |
| 20260831034735 | 71 | 266 | 2.6 | 7.0 | 0.00 | 0.00 | 0.00 | 63 | 1030.3 |
| 20260831033734 | 71 | 216 | 2.6 | 3.5 | 0.00 | 0.00 | 0.00 | 58 | 1030.3 |
| 20260831032733 | 70 | 234 | 2.6 | 4.3 | 0.00 | 0.00 | 0.00 | 59 | 1030.5 |
| 20260831031732 | 70 | 215 | 2.6 | 3.5 | 0.00 | 0.00 | 0.00 | 60 | 1030.5 |
| 20260831030730 | 71 | 211 | 2.6 | 3.5 | 0.00 | 0.00 | 0.00 | 60 | 1030.6 |
| 20260831025728 | 71 | 264 | 2.6 | 5.2 | 0.00 | 0.00 | 0.00 | 59 | 1030.7 |
| 20260831024727 | 70 | 217 | 1.7 | 3.5 | 0.00 | 0.00 | 0.00 | 62 | 1030.8 |
| 20260831023726 | 71 | 226 | 2.6 | 4.3 | 0.00 | 0.00 | 0.00 | 57 | 1031.0 |
| 20260831022725 | 70 | 259 | 1.7 | 3.5 | 0.00 | 0.00 | 0.00 | 63 | 1031.2 |
| 20260831021724 | 70 | 276 | 2.6 | 5.2 | 0.00 | 0.00 | 0.00 | 63 | 1031.3 |
| 20260831020742 | 71 | 224 | 2.6 | 3.5 | 0.00 | 0.00 | 0.00 | 63 | 1031.5 |
| 20260831015721 | 70 | 216 | 2.6 | 3.5 | 0.00 | 0.00 | 0.00 | 64 | 1031.7 |
| 20260831014740 | 69 | 220 | 2.6 | 3.5 | 0.00 | 0.00 | 0.00 | 65 | 1031.7 |
| 20260831013738 | 70 | 273 | 3.5 | 4.3 | 0.00 | 0.00 | 0.00 | 64 | 1031.9 |
| 20260831012717 | 67 | 273 | 2.6 | 4.3 | 0.00 | 0.00 | 0.00 | 67 | 1031.9 |
| 20260831011716 | 72 | 271 | 5.2 | 6.1 | 0.00 | 0.00 | 0.00 | 62 | 1031.9 |
| 20260831010745 | 69 | 255 | 1.7 | 3.5 | 0.00 | 0.00 | 0.00 | 66 | 1031.9 |
| 20260831005744 | 68 | 148 | 0.9 | 1.7 | 0.00 | 0.00 | 0.00 | 65 | 1032.0 |
| 20260831004743 | 69 | 210 | 1.7 | 2.6 | 0.00 | 0.00 | 0.00 | 64 | 1032.1 |
| 20260831003741 | 71 | 145 | 0.9 | 0.9 | 0.00 | 0.00 | 0.00 | 59 | 1032.1 |
| 20260831002741 | 69 | 121 | 0.9 | 0.9 | 0.00 | 0.00 | 0.00 | 61 | 1032.1 |
| 20260831001739 | 71 | 93 | 1.7 | 3.5 | 0.00 | 0.00 | 0.00 | 61 | 1032.1 |
| 20260831000737 | 69 | 186 | 1.7 | 2.6 | 0.00 | 0.00 | 0.00 | 63 | 1032.2 |
| 20260830235736 | 70 | 252 | 2.6 | 3.5 | 0.00 | 0.00 | 0.00 | 61 | 1032.3 |
| 20260830234735 | 66 | 0.0 | 1.7 | 0.00 | 0.00 | 0.00 | 66 | 1032.2 | |
| 20260830233734 | 66 | 68 | 1.7 | 2.6 | 0.00 | 0.00 | 0.00 | 68 | 1032.3 |
| 20260830232732 | 65 | 99 | 1.7 | 1.7 | 0.00 | 0.00 | 0.00 | 69 | 1032.3 |
| 20260830231812 | 64 | 106 | 0.9 | 2.6 | 0.00 | 0.00 | 0.00 | 71 | 1032.3 |
| 20260830230730 | 64 | 42 | 1.7 | 2.6 | 0.00 | 0.00 | 0.00 | 72 | 1032.3 |
| 20260830225729 | 63 | 54 | 2.6 | 3.5 | 0.00 | 0.00 | 0.00 | 74 | 1032.3 |
| 20260830224727 | 62 | 60 | 2.6 | 3.5 | 0.00 | 0.00 | 0.00 | 75 | 1032.4 |
| 20260830223725 | 62 | 51 | 1.7 | 2.6 | 0.00 | 0.00 | 0.00 | 76 | 1032.3 |
| 20260830222725 | 62 | 76 | 0.9 | 1.7 | 0.00 | 0.00 | 0.00 | 77 | 1032.2 |
| 20260830221724 | 61 | 95 | 0.9 | 1.7 | 0.00 | 0.00 | 0.00 | 78 | 1032.2 |
| 20260830220722 | 61 | 85 | 2.6 | 4.3 | 0.00 | 0.00 | 0.00 | 77 | 1032.2 |
| 20260830215741 | 59 | 143 | 2.6 | 3.5 | 0.00 | 0.00 | 0.00 | 82 | 1032.2 |
| 20260830214720 | 58 | 111 | 1.7 | 3.5 | 0.00 | 0.00 | 0.00 | 84 | 1032.3 |
| 20260830213718 | 57 | 177 | 1.7 | 2.6 | 0.00 | 0.00 | 0.00 | 87 | 1032.2 |
| 20260830212717 | 55 | 87 | 1.7 | 4.3 | 0.00 | 0.00 | 0.00 | 91 | 1031.9 |
| 20260830211745 | 53 | 110 | 1.7 | 2.6 | 0.00 | 0.00 | 0.00 | 92 | 1031.9 |
| 20260830210743 | 52 | 96 | 2.6 | 4.3 | 0.00 | 0.00 | 0.00 | 95 | 1031.9 |
| 20260830205802 | 51 | 105 | 1.7 | 3.5 | 0.00 | 0.00 | 0.00 | 96 | 1032.0 |
| 20260830204741 | 50 | 102 | 2.6 | 2.6 | 0.00 | 0.00 | 0.00 | 97 | 1031.8 |
| 20260830203740 | 50 | 115 | 2.6 | 2.6 | 0.00 | 0.00 | 0.00 | 97 | 1031.9 |
| 20260830202738 | 49 | 120 | 2.6 | 2.6 | 0.00 | 0.00 | 0.00 | 97 | 1031.6 |
| 20260830201737 | 48 | 104 | 1.7 | 2.6 | 0.00 | 0.00 | 0.00 | 97 | 1031.6 |
| 20260830200736 | 48 | 143 | 0.9 | 2.6 | 0.00 | 0.00 | 0.00 | 97 | 1031.4 |
| 20260830195755 | 48 | 118 | 1.7 | 2.6 | 0.00 | 0.00 | 0.00 | 97 | 1031.2 |
| 20260830194734 | 49 | 132 | 1.7 | 3.5 | 0.00 | 0.00 | 0.00 | 97 | 1031.2 |
| 20260830193732 | 50 | 152 | 1.7 | 2.6 | 0.00 | 0.00 | 0.00 | 97 | 1031.0 |
| 20260830192731 | 50 | 114 | 1.7 | 3.5 | 0.00 | 0.00 | 0.00 | 97 | 1030.9 |
| 20260830191730 | 50 | 99 | 2.6 | 3.5 | 0.00 | 0.00 | 0.00 | 97 | 1030.8 |
| 20260830190729 | 50 | 110 | 1.7 | 2.6 | 0.00 | 0.00 | 0.00 | 97 | 1030.6 |
| 20260830185727 | 49 | 126 | 1.7 | 2.6 | 0.00 | 0.00 | 0.00 | 97 | 1030.5 |
| 20260830184726 | 50 | 116 | 2.6 | 3.5 | 0.00 | 0.00 | 0.00 | 97 | 1030.7 |
| 20260830183725 | 50 | 118 | 1.7 | 3.5 | 0.00 | 0.00 | 0.00 | 97 | 1030.3 |
| 20260830182724 | 50 | 122 | 2.6 | 3.5 | 0.00 | 0.00 | 0.00 | 97 | 1030.4 |
| 20260830181722 | 50 | 135 | 0.9 | 3.5 | 0.00 | 0.00 | 0.00 | 97 | 1030.4 |
| 20260830180742 | 51 | 140 | 1.7 | 2.6 | 0.00 | 0.00 | 0.00 | 96 | 1030.5 |
| 20260830175720 | 51 | 123 | 3.5 | 4.3 | 0.00 | 0.00 | 0.00 | 97 | 1030.3 |
| 20260830174719 | 51 | 136 | 2.6 | 3.5 | 0.00 | 0.00 | 0.00 | 97 | 1030.5 |
| 20260830173718 | 51 | 91 | 3.5 | 4.3 | 0.00 | 0.00 | 0.00 | 97 | 1030.4 |
| 20260830172716 | 50 | 102 | 1.7 | 2.6 | 0.00 | 0.00 | 0.00 | 97 | 1030.5 |
| 20260830171805 | 50 | 112 | 2.6 | 3.5 | 0.00 | 0.00 | 0.00 | 97 | 1030.5 |
| 20260830170744 | 50 | 93 | 0.9 | 3.5 | 0.00 | 0.00 | 0.00 | 97 | 1030.6 |
| 20260830165743 | 49 | 118 | 1.7 | 2.6 | 0.00 | 0.00 | 0.00 | 97 | 1030.4 |
| 20260830164741 | 49 | 117 | 1.7 | 2.6 | 0.00 | 0.00 | 0.00 | 97 | 1030.5 |
| 20260830163801 | 50 | 114 | 4.3 | 5.2 | 0.00 | 0.00 | 0.00 | 97 | 1030.7 |
| 20260830162739 | 50 | 91 | 3.5 | 3.5 | 0.00 | 0.00 | 0.00 | 96 | 1030.5 |
| 20260830161758 | 50 | 125 | 1.7 | 3.5 | 0.00 | 0.00 | 0.00 | 96 | 1030.6 |
| 20260830160737 | 50 | 93 | 2.6 | 2.6 | 0.00 | 0.00 | 0.00 | 96 | 1030.7 |
| 20260830155735 | 50 | 160 | 1.7 | 2.6 | 0.00 | 0.00 | 0.00 | 96 | 1030.8 |
| 20260830154734 | 51 | 171 | 1.7 | 2.6 | 0.00 | 0.00 | 0.00 | 96 | 1030.9 |
| 20260830153733 | 51 | 157 | 0.9 | 1.7 | 0.00 | 0.00 | 0.00 | 96 | 1030.9 |
| 20260830152732 | 51 | 200 | 1.7 | 3.5 | 0.00 | 0.00 | 0.00 | 96 | 1031.1 |
| 20260830151729 | 51 | 154 | 0.9 | 1.7 | 0.00 | 0.00 | 0.00 | 96 | 1031.0 |
| 20260830150728 | 51 | 121 | 1.7 | 2.6 | 0.00 | 0.00 | 0.00 | 95 | 1031.2 |
| 20260830145747 | 51 | 123 | 1.7 | 1.7 | 0.00 | 0.00 | 0.00 | 95 | 1031.2 |
| 20260830144746 | 52 | 131 | 1.7 | 1.7 | 0.00 | 0.00 | 0.00 | 95 | 1031.1 |
| 20260830143725 | 52 | 120 | 1.7 | 2.6 | 0.00 | 0.00 | 0.00 | 96 | 1031.1 |
| 20260830142723 | 52 | 117 | 1.7 | 2.6 | 0.00 | 0.00 | 0.00 | 96 | 1031.1 |
| 20260830141742 | 51 | 118 | 1.7 | 2.6 | 0.00 | 0.00 | 0.00 | 96 | 1031.4 |
| 20260830140721 | 51 | 111 | 1.7 | 2.6 | 0.00 | 0.00 | 0.00 | 96 | 1031.2 |
| 20260830135720 | 51 | 132 | 1.7 | 1.7 | 0.00 | 0.00 | 0.00 | 96 | 1031.4 |
| 20260830134718 | 51 | 131 | 1.7 | 1.7 | 0.00 | 0.00 | 0.00 | 96 | 1031.3 |
| 20260830133717 | 52 | 127 | 1.7 | 1.7 | 0.00 | 0.00 | 0.00 | 96 | 1031.2 |
| 20260830132715 | 52 | 125 | 1.7 | 1.7 | 0.00 | 0.00 | 0.00 | 96 | 1031.4 |
| 20260830131745 | 53 | 106 | 1.7 | 2.6 | 0.00 | 0.00 | 0.00 | 96 | 1031.4 |
| 20260830130744 | 53 | 105 | 1.7 | 2.6 | 0.00 | 0.00 | 0.00 | 96 | 1031.3 |
| 20260830125742 | 53 | 106 | 1.7 | 2.6 | 0.00 | 0.00 | 0.00 | 96 | 1031.4 |
| 20260830124802 | 53 | 111 | 2.6 | 2.6 | 0.00 | 0.00 | 0.00 | 96 | 1031.5 |
| 20260830123740 | 53 | 102 | 1.7 | 2.6 | 0.00 | 0.00 | 0.00 | 96 | 1031.5 |
| 20260830122738 | 53 | 104 | 2.6 | 2.6 | 0.00 | 0.00 | 0.00 | 96 | 1031.3 |
| 20260830121818 | 53 | 122 | 1.7 | 1.7 | 0.00 | 0.00 | 0.00 | 96 | 1031.5 |
| 20260830120736 | 53 | 111 | 1.7 | 1.7 | 0.00 | 0.00 | 0.00 | 96 | 1031.3 |
| 20260830115734 | 54 | 111 | 1.7 | 1.7 | 0.00 | 0.00 | 0.00 | 96 | 1031.5 |
| 20260830114733 | 54 | 101 | 1.7 | 1.7 | 0.00 | 0.00 | 0.00 | 96 | 1031.6 |
| 20260830113732 | 54 | 111 | 1.7 | 2.6 | 0.00 | 0.00 | 0.00 | 96 | 1031.6 |
| 20260830112731 | 54 | 108 | 1.7 | 1.7 | 0.00 | 0.00 | 0.00 | 96 | 1031.5 |
| 20260830111730 | 54 | 119 | 1.7 | 1.7 | 0.00 | 0.00 | 0.00 | 96 | 1031.4 |
| 20260830110728 | 54 | 108 | 1.7 | 2.6 | 0.00 | 0.00 | 0.00 | 95 | 1031.5 |
| 20260830105747 | 54 | 119 | 1.7 | 2.6 | 0.00 | 0.00 | 0.00 | 95 | 1031.3 |
| 20260830104726 | 54 | 117 | 2.6 | 2.6 | 0.00 | 0.00 | 0.00 | 95 | 1031.3 |
| 20260830103725 | 54 | 114 | 1.7 | 1.7 | 0.00 | 0.00 | 0.00 | 94 | 1031.2 |
| 20260830102724 | 55 | 123 | 1.7 | 1.7 | 0.00 | 0.00 | 0.00 | 94 | 1031.2 |
| 20260830101722 | 55 | 120 | 1.7 | 1.7 | 0.00 | 0.00 | 0.00 | 94 | 1031.1 |
| 20260830100721 | 55 | 117 | 1.7 | 1.7 | 0.00 | 0.00 | 0.00 | 94 | 1031.2 |
| 20260830095720 | 55 | 113 | 2.6 | 3.5 | 0.00 | 0.00 | 0.00 | 93 | 1031.1 |
| 20260830094718 | 55 | 126 | 1.7 | 1.7 | 0.00 | 0.00 | 0.00 | 93 | 1031.1 |
| 20260830093717 | 55 | 119 | 1.7 | 2.6 | 0.00 | 0.00 | 0.00 | 92 | 1030.9 |
| 20260830092745 | 56 | 115 | 1.7 | 2.6 | 0.00 | 0.00 | 0.00 | 92 | 1030.7 |
| 20260830091744 | 56 | 117 | 1.7 | 1.7 | 0.00 | 0.00 | 0.00 | 91 | 1030.7 |
| 20260830090743 | 57 | 118 | 1.7 | 2.6 | 0.00 | 0.00 | 0.00 | 90 | 1030.8 |
| 20260830085742 | 58 | 106 | 1.7 | 2.6 | 0.00 | 0.00 | 0.00 | 90 | 1030.7 |
| 20260830084800 | 58 | 103 | 1.7 | 2.6 | 0.00 | 0.00 | 0.00 | 90 | 1030.5 |
| 20260830083739 | 58 | 110 | 2.6 | 2.6 | 0.00 | 0.00 | 0.00 | 88 | 1030.5 |
| 20260830082738 | 59 | 107 | 2.6 | 2.6 | 0.00 | 0.00 | 0.00 | 87 | 1030.4 |
| 20260830081737 | 60 | 107 | 2.6 | 2.6 | 0.00 | 0.00 | 0.00 | 85 | 1030.2 |
| 20260830080735 | 60 | 104 | 1.7 | 2.6 | 0.00 | 0.00 | 0.00 | 84 | 1030.2 |
| 20260830075734 | 61 | 99 | 2.6 | 2.6 | 0.00 | 0.00 | 0.00 | 82 | 1030.1 |
| 20260830074733 | 62 | 108 | 1.7 | 2.6 | 0.00 | 0.00 | 0.00 | 80 | 1030.0 |
| 20260830073731 | 63 | 111 | 1.7 | 2.6 | 0.00 | 0.00 | 0.00 | 79 | 1029.9 |
| 20260830072730 | 64 | 121 | 0.9 | 1.7 | 0.00 | 0.00 | 0.00 | 77 | 1029.8 |
| 20260830071809 | 64 | 0.0 | 1.7 | 0.00 | 0.00 | 0.00 | 75 | 1029.8 | |
| 20260830070728 | 65 | 174 | 0.9 | 2.6 | 0.00 | 0.00 | 0.00 | 73 | 1029.8 |
| 20260830065727 | 66 | 344 | 0.9 | 1.7 | 0.00 | 0.00 | 0.00 | 69 | 1029.7 |
| 20260830064725 | 67 | 0.0 | 0.9 | 0.00 | 0.00 | 0.00 | 68 | 1029.8 | |
| 20260830063745 | 67 | 274 | 0.9 | 1.7 | 0.00 | 0.00 | 0.00 | 68 | 1029.7 |
| 20260830062723 | 67 | 282 | 1.7 | 3.5 | 0.00 | 0.00 | 0.00 | 68 | 1029.7 |
| 20260830061722 | 67 | 255 | 1.7 | 3.5 | 0.00 | 0.00 | 0.00 | 69 | 1029.9 |
| 20260830060720 | 67 | 301 | 1.7 | 5.2 | 0.00 | 0.00 | 0.00 | 69 | 1029.6 |
| 20260830055719 | 67 | 282 | 2.6 | 3.5 | 0.00 | 0.00 | 0.00 | 68 | 1029.8 |